Time;durP1;ratioP1;P1;durP2;ratioP2;P2;SDS_P1;SDS_P2;PMS_P1;PMS_P2;Temp;Humidity;BMP_temperature;BMP_pressure;BME280_temperature;BME280_humidity;BME280_pressure;Samples;Min_cycle;Max_cycle;Signal;HPM_P1;HPM_P2
2023/12/04 00:01:30;;;;;;;19.50;14.70;;;;;;;-1.29;100.00;97910.67;110458;1239;58914;-67
2023/12/04 00:04:02;;;;;;;16.40;11.80;;;;;;;-1.31;100.00;97911.73;110456;1239;58943;-67
2023/12/04 00:06:32;;;;;;;15.60;12.70;;;;;;;-1.31;100.00;97916.36;110555;1246;69545;-69
2023/12/04 00:09:03;;;;;;;18.10;12.50;;;;;;;-1.34;100.00;97915.04;110449;1236;69116;-69
2023/12/04 00:11:33;;;;;;;14.40;9.50;;;;;;;-1.36;100.00;97917.81;110461;1240;69097;-67
2023/12/04 00:14:03;;;;;;;18.20;12.30;;;;;;;-1.38;100.00;97920.24;110444;1238;58936;-68
2023/12/04 00:16:37;;;;;;;14.60;11.00;;;;;;;-1.37;100.00;97927.76;110458;1246;58815;-68
2023/12/04 00:19:09;;;;;;;14.20;10.80;;;;;;;-1.38;100.00;97928.96;110494;1239;70559;-68
2023/12/04 00:21:40;;;;;;;15.50;11.90;;;;;;;-1.39;100.00;97929.48;110483;1240;68466;-68
2023/12/04 00:24:10;;;;;;;15.10;9.90;;;;;;;-1.40;100.00;97929.85;110406;1238;69065;-68
2023/12/04 00:26:40;;;;;;;13.70;9.70;;;;;;;-1.40;100.00;97938.91;110457;1238;58944;-68
2023/12/04 00:29:11;;;;;;;18.00;11.20;;;;;;;-1.41;100.00;97942.85;110350;1241;58927;-68
2023/12/04 00:31:42;;;;;;;14.00;10.00;;;;;;;-1.39;100.00;97944.88;110465;1237;69804;-68
2023/12/04 00:34:12;;;;;;;15.90;10.60;;;;;;;-1.39;100.00;97954.45;110531;1239;69629;-68
2023/12/04 00:36:43;;;;;;;13.60;9.80;;;;;;;-1.38;100.00;97955.30;110445;1244;69608;-68
2023/12/04 00:39:14;;;;;;;12.10;9.00;;;;;;;-1.38;100.00;97958.38;110362;1241;58925;-68
2023/12/04 00:41:45;;;;;;;14.60;9.90;;;;;;;-1.38;100.00;97964.20;110491;1238;58932;-68
2023/12/04 00:44:16;;;;;;;17.60;10.90;;;;;;;-1.40;100.00;97968.15;110459;1237;70596;-68
2023/12/04 00:46:46;;;;;;;14.70;9.80;;;;;;;-1.42;100.00;97967.16;110461;1238;69741;-68
2023/12/04 00:49:16;;;;;;;;;;;;;;;-1.44;100.00;97962.22;110487;1239;69118;-69
2023/12/04 00:51:48;;;;;;;13.30;9.10;;;;;;;-1.50;100.00;97967.27;110482;1239;58923;-69
2023/12/04 00:54:20;;;;;;;12.90;9.80;;;;;;;-1.46;100.00;97970.81;110530;1238;58934;-69
2023/12/04 00:56:51;;;;;;;15.10;10.40;;;;;;;-1.47;100.00;97972.20;110482;1239;69815;-68
2023/12/04 00:59:22;;;;;;;13.20;9.70;;;;;;;-1.46;100.00;97973.55;110648;1239;68349;-67
2023/12/04 01:01:52;;;;;;;13.50;9.00;;;;;;;-1.44;100.00;97977.61;110592;1239;69186;-68
2023/12/04 01:04:23;;;;;;;12.50;8.30;;;;;;;-1.45;100.00;97979.67;110541;1238;58888;-67
2023/12/04 01:06:55;;;;;;;13.10;8.60;;;;;;;-1.43;100.00;97979.31;110623;1239;58866;-68
2023/12/04 01:09:25;;;;;;;14.10;8.80;;;;;;;-1.44;100.00;97976.92;110474;1239;70437;-68
2023/12/04 01:11:57;;;;;;;11.80;8.10;;;;;;;-1.43;100.00;97981.19;110437;1239;69050;-67
2023/12/04 01:14:28;;;;;;;10.80;7.40;;;;;;;-1.45;99.30;97984.33;110508;1240;69254;-67
2023/12/04 01:16:58;;;;;;;12.30;8.10;;;;;;;-1.46;98.93;97989.10;110397;1241;58932;-67
2023/12/04 01:19:29;;;;;;;12.00;7.90;;;;;;;-1.47;96.95;97991.52;110474;1244;58880;-68
2023/12/04 01:22:00;;;;;;;12.80;8.00;;;;;;;-1.46;98.45;97992.19;110458;1238;69858;-68
2023/12/04 01:24:32;;;;;;;11.10;7.40;;;;;;;-1.45;98.17;97995.42;110524;1239;69255;-68
2023/12/04 01:27:03;;;;;;;11.30;6.50;;;;;;;-1.47;97.83;97994.42;110401;1239;68515;-68
2023/12/04 01:29:36;;;;;;;9.60;6.50;;;;;;;-1.47;96.76;97995.45;110524;1238;59017;-68
2023/12/04 01:32:07;;;;;;;11.80;8.40;;;;;;;-1.46;97.44;97996.64;110569;1245;58927;-68
2023/12/04 01:34:38;;;;;;;12.50;8.30;;;;;;;-1.47;97.17;98000.41;110484;1240;70634;-68
2023/12/04 01:37:11;;;;;;;11.10;7.30;;;;;;;-1.48;96.93;97999.22;110700;1239;69201;-67
2023/12/04 01:39:45;;;;;;;10.80;7.40;;;;;;;-1.48;98.44;97996.48;110828;1239;69244;-68
2023/12/04 01:42:17;;;;;;;10.00;6.30;;;;;;;-1.48;98.95;97996.31;111367;1239;58917;-67
2023/12/04 01:44:47;;;;;;;8.90;7.10;;;;;;;-1.47;98.16;97996.14;110586;1239;58866;-68
2023/12/04 01:47:20;;;;;;;9.50;6.30;;;;;;;-1.46;98.51;97998.34;110686;1237;70623;-68
2023/12/04 01:49:50;;;;;;;8.80;6.80;;;;;;;-1.47;97.94;97997.33;110760;1246;69054;-67
2023/12/04 01:52:23;;;;;;;12.70;7.50;;;;;;;-1.47;97.53;97999.90;110529;1239;571567;-67
2023/12/04 01:54:56;;;;;;;9.60;6.90;;;;;;;-1.46;97.58;97998.52;111071;1239;57926;-68
2023/12/04 01:57:31;;;;;;;9.60;6.70;;;;;;;-1.47;97.49;97999.38;110991;1239;58878;-68
2023/12/04 02:00:06;;;;;;;9.80;6.50;;;;;;;-1.47;98.27;97997.34;110928;1239;69730;-68
2023/12/04 02:02:44;;;;;;;8.20;6.30;;;;;;;-1.45;99.08;97995.58;110431;1239;69260;-68
2023/12/04 02:05:15;;;;;;;9.90;7.10;;;;;;;-1.44;98.85;97997.95;110581;1245;68313;-68
2023/12/04 02:07:47;;;;;;;9.50;6.30;;;;;;;-1.44;98.64;97997.45;110640;1239;58927;-68
2023/12/04 02:10:18;;;;;;;10.00;7.10;;;;;;;-1.44;98.66;98000.36;110577;1242;58861;-68
2023/12/04 02:12:51;;;;;;;11.00;7.40;;;;;;;-1.48;96.98;97998.72;110536;1241;68835;-68
2023/12/04 02:15:22;;;;;;;9.70;6.60;;;;;;;-1.48;97.32;98000.24;110563;1245;68690;-68
2023/12/04 02:17:55;;;;;;;10.60;6.80;;;;;;;-1.52;96.13;97999.45;110599;1238;68468;-68
2023/12/04 02:20:35;;;;;;;9.30;6.90;;;;;;;-1.53;94.87;98000.32;110517;1237;58881;-68
2023/12/04 02:23:06;;;;;;;;;;;;;;;-1.53;95.69;98004.26;110587;1239;59294;-68
2023/12/04 02:25:37;;;;;;;9.20;6.10;;;;;;;-1.53;95.90;97997.08;110608;1239;70595;-68
2023/12/04 02:28:13;;;;;;;9.10;6.30;;;;;;;-1.52;97.27;97997.41;110574;1239;68549;-68
2023/12/04 02:30:46;;;;;;;10.60;6.50;;;;;;;-1.51;97.51;97995.52;110414;1240;68511;-68
2023/12/04 02:33:24;;;;;;;10.20;7.10;;;;;;;-1.52;96.90;97999.98;110466;1238;58820;-68
2023/12/04 02:35:57;;;;;;;7.80;5.30;;;;;;;-1.51;97.49;98000.14;110458;1238;58866;-68
2023/12/04 02:38:30;;;;;;;10.10;5.90;;;;;;;-1.51;96.80;98003.05;110440;1239;70711;-68
2023/12/04 02:41:00;;;;;;;9.40;6.00;;;;;;;-1.50;97.30;98000.27;110522;1240;67481;-68
2023/12/04 02:43:33;;;;;;;10.00;6.50;;;;;;;-1.49;97.20;98001.45;110450;1239;69101;-68
2023/12/04 02:46:07;;;;;;;8.50;5.70;;;;;;;-1.49;97.29;98003.34;110354;1244;58916;-68
2023/12/04 02:48:40;;;;;;;9.10;6.10;;;;;;;-1.48;97.25;98000.59;110551;1238;58883;-68
2023/12/04 02:51:13;;;;;;;9.90;6.90;;;;;;;-1.49;97.11;97999.75;110340;1241;70076;-68
2023/12/04 02:53:44;;;;;;;9.30;6.50;;;;;;;-1.53;96.67;97999.47;110505;1238;69295;-68
2023/12/04 02:56:15;;;;;;;10.10;6.70;;;;;;;-1.56;97.81;97995.25;110489;1246;69122;-68
2023/12/04 02:58:46;;;;;;;10.00;7.30;;;;;;;-1.57;98.29;98000.05;110522;1238;58892;-68
2023/12/04 03:01:17;;;;;;;9.80;6.70;;;;;;;-1.57;98.76;98000.05;110535;1238;58851;-68
2023/12/04 03:03:47;;;;;;;11.10;7.30;;;;;;;-1.58;99.48;97999.21;110500;1239;70564;-68
2023/12/04 03:06:19;;;;;;;9.00;6.50;;;;;;;-1.57;99.95;98008.77;110581;1239;69389;-69
2023/12/04 03:08:49;;;;;;;10.30;6.40;;;;;;;-1.58;98.99;98009.10;110454;1243;68331;-69
2023/12/04 03:11:21;;;;;;;11.50;7.90;;;;;;;-1.57;99.06;98006.71;110479;1240;58980;-69
2023/12/04 03:13:53;;;;;;;13.30;8.00;;;;;;;-1.56;98.87;98005.33;110479;1240;58867;-68
2023/12/04 03:16:24;;;;;;;9.90;7.10;;;;;;;-1.57;98.46;98004.15;110420;1238;69888;-67
2023/12/04 03:18:56;;;;;;;11.30;7.20;;;;;;;-1.61;97.50;98005.40;110650;1239;69207;-67
2023/12/04 03:21:28;;;;;;;8.10;6.00;;;;;;;-1.59;97.14;98006.90;110479;1239;69251;-68
2023/12/04 03:24:00;;;;;;;11.10;7.10;;;;;;;-1.60;96.47;98005.05;110515;1239;58918;-68
2023/12/04 03:26:32;;;;;;;10.70;7.70;;;;;;;-1.62;96.58;98005.24;110419;1241;58863;-68
2023/12/04 03:29:05;;;;;;;9.80;6.40;;;;;;;-1.62;96.44;98005.41;110567;1239;70844;-67
2023/12/04 03:31:41;;;;;;;7.60;5.60;;;;;;;-1.62;96.35;98010.04;110578;1237;67826;-68
2023/12/04 03:34:12;;;;;;;7.00;5.00;;;;;;;-1.59;97.49;98011.36;110712;1241;69264;-68
2023/12/04 03:36:44;;;;;;;8.30;6.40;;;;;;;-1.57;97.71;98008.44;110517;1239;58935;-68
2023/12/04 03:39:16;;;;;;;8.60;5.90;;;;;;;-1.57;97.53;98009.95;110510;1239;59281;-67
2023/12/04 03:41:48;;;;;;;7.00;4.80;;;;;;;-1.57;97.60;98011.51;110478;1238;69937;-68
2023/12/04 03:44:22;;;;;;;7.70;5.30;;;;;;;-1.57;98.05;98013.02;110566;1239;69263;-68
2023/12/04 03:46:53;;;;;;;7.70;5.20;;;;;;;-1.57;98.96;98017.83;110556;1239;69265;-68
2023/12/04 03:49:24;;;;;;;7.30;4.90;;;;;;;-1.56;99.43;98021.92;110486;1239;58854;-68
2023/12/04 03:51:55;;;;;;;6.50;5.00;;;;;;;-1.56;98.77;98023.29;110395;1241;58927;-68
2023/12/04 03:54:25;;;;;;;7.50;5.50;;;;;;;-1.56;98.43;98025.68;110531;1239;71153;-68
2023/12/04 03:56:58;;;;;;;11.10;7.90;;;;;;;-1.58;98.48;98024.49;110571;1239;69147;-68
2023/12/04 03:59:29;;;;;;;9.60;6.70;;;;;;;-1.59;97.38;98024.00;110504;1239;68821;-68
2023/12/04 04:02:01;;;;;;;10.50;6.30;;;;;;;-1.61;97.48;98022.67;110689;1239;58928;-68
2023/12/04 04:04:32;;;;;;;11.00;7.30;;;;;;;-1.61;98.59;98028.66;110452;1241;58827;-68
2023/12/04 04:07:02;;;;;;;8.80;6.50;;;;;;;-1.61;98.14;98031.56;110425;1241;70842;-67
2023/12/04 04:09:33;;;;;;;9.50;5.90;;;;;;;-1.62;98.44;98034.64;110582;1239;69285;-68
2023/12/04 04:12:06;;;;;;;9.40;6.60;;;;;;;-1.62;98.68;98038.58;110550;1239;68568;-68
2023/12/04 04:14:38;;;;;;;10.10;6.30;;;;;;;-1.61;99.22;98038.23;110571;1239;58984;-67
2023/12/04 04:17:09;;;;;;;9.60;5.90;;;;;;;-1.62;99.75;98040.13;110589;1239;58900;-67
2023/12/04 04:19:41;;;;;;;8.20;5.70;;;;;;;-1.61;99.94;98037.36;110557;1238;69813;-67
2023/12/04 04:22:16;;;;;;;10.70;6.70;;;;;;;-1.61;99.76;98037.04;110532;1238;69683;-67
2023/12/04 04:24:49;;;;;;;7.70;6.50;;;;;;;-1.63;98.91;98036.36;110458;1239;68874;-67
2023/12/04 04:27:20;;;;;;;8.20;6.00;;;;;;;-1.64;98.29;98033.81;110485;1238;58852;-68
2023/12/04 04:29:49;;;;;;;8.20;5.70;;;;;;;-1.64;99.00;98029.72;110589;1246;58866;-68
2023/12/04 04:32:20;;;;;;;9.30;7.10;;;;;;;-1.65;98.45;98025.64;110528;1239;69833;-68
2023/12/04 04:34:51;;;;;;;10.80;7.70;;;;;;;-1.66;97.92;98024.62;110497;1239;68618;-68
2023/12/04 04:37:22;;;;;;;9.90;7.00;;;;;;;-1.73;95.78;98029.70;110591;1238;68640;-68
2023/12/04 04:39:52;;;;;;;9.30;7.20;;;;;;;-1.76;94.37;98030.23;110604;1239;58792;-68
2023/12/04 04:42:23;;;;;;;9.40;7.30;;;;;;;-1.78;93.95;98031.13;110522;1239;58933;-68
2023/12/04 04:44:54;;;;;;;10.10;7.30;;;;;;;-1.83;93.14;98033.23;110544;1239;69804;-68
2023/12/04 04:47:25;;;;;;;10.30;6.90;;;;;;;-1.82;92.99;98032.02;110579;1239;68501;-68
2023/12/04 04:49:58;;;;;;;9.00;6.80;;;;;;;-1.78;94.40;98035.38;110444;1237;69066;-68
2023/12/04 04:52:29;;;;;;;10.00;6.80;;;;;;;-1.77;95.90;98039.98;110441;1238;58934;-68
2023/12/04 04:55:01;;;;;;;8.90;6.20;;;;;;;-1.74;96.92;98041.33;110454;1238;58808;-68
2023/12/04 04:57:32;;;;;;;9.60;6.10;;;;;;;-1.74;97.39;98038.75;110464;1238;70578;-68
2023/12/04 05:00:03;;;;;;;8.50;5.90;;;;;;;-1.74;97.79;98039.45;110496;1239;69544;-68
2023/12/04 05:02:35;;;;;;;8.80;6.50;;;;;;;-1.74;97.91;98040.14;110453;1238;68390;-68
2023/12/04 05:05:06;;;;;;;10.10;6.20;;;;;;;-1.75;98.29;98040.98;110522;1239;58849;-68
2023/12/04 05:07:36;;;;;;;7.90;5.40;;;;;;;-1.77;98.09;98041.02;110579;1239;58927;-68
2023/12/04 05:10:06;;;;;;;9.70;6.40;;;;;;;-1.81;98.37;98042.42;110465;1239;71155;-68
2023/12/04 05:12:37;;;;;;;7.90;6.00;;;;;;;-1.84;97.57;98040.94;110658;1239;69110;-68
2023/12/04 05:15:07;;;;;;;8.60;5.60;;;;;;;-1.83;97.60;98045.55;110639;1238;67374;-68
2023/12/04 05:17:37;;;;;;;;;;;;;;;-1.83;98.09;98051.85;110564;1238;58944;-68
2023/12/04 05:20:08;;;;;;;9.30;5.70;;;;;;;-1.84;97.96;98058.54;110430;1239;58830;-68
2023/12/04 05:22:40;;;;;;;9.10;6.20;;;;;;;-1.85;97.98;98060.23;110588;1239;71434;-68
2023/12/04 05:25:10;;;;;;;8.50;6.30;;;;;;;-1.85;97.98;98065.88;110447;1239;69065;-68
2023/12/04 05:27:41;;;;;;;10.40;7.00;;;;;;;-1.86;97.59;98065.21;110298;1241;68342;-68
2023/12/04 05:30:12;;;;;;;9.60;6.20;;;;;;;-1.87;96.71;98064.05;110435;1239;58927;-68
2023/12/04 05:32:42;;;;;;;7.20;4.70;;;;;;;-1.87;95.76;98071.21;110534;1239;58881;-68
2023/12/04 05:35:11;;;;;;;8.20;6.30;;;;;;;-1.88;95.65;98074.81;110457;1239;70478;-68
2023/12/04 05:37:41;;;;;;;7.60;5.50;;;;;;;-1.86;96.71;98071.02;110451;1246;69230;-68
2023/12/04 05:40:14;;;;;;;9.60;5.70;;;;;;;-1.87;95.46;98072.75;110467;1238;68293;-68
2023/12/04 05:42:45;;;;;;;8.40;5.50;;;;;;;-1.86;96.08;98075.29;110438;1239;58938;-68
2023/12/04 05:45:15;;;;;;;9.30;5.90;;;;;;;-1.86;96.98;98077.52;110492;1240;58868;-68
2023/12/04 05:47:45;;;;;;;7.50;5.30;;;;;;;-1.87;97.45;98081.45;110528;1239;71041;-69
2023/12/04 05:50:14;;;;;;;7.50;5.40;;;;;;;-1.86;97.98;98086.23;110511;1238;68955;-69
2023/12/04 05:52:44;;;;;;;9.10;6.60;;;;;;;-1.87;97.89;98085.21;110513;1238;69181;-71
2023/12/04 05:55:15;;;;;;;8.50;6.20;;;;;;;-1.87;97.78;98088.64;110585;1239;58946;-69
2023/12/04 05:57:45;;;;;;;;;;;;;;;-1.90;97.63;98089.36;110609;1238;58945;-68
2023/12/04 06:00:16;;;;;;;7.10;5.50;;;;;;;-1.92;97.80;98089.75;110525;1239;69987;-68
2023/12/04 06:02:45;;;;;;;8.60;5.90;;;;;;;-1.94;97.04;98084.63;110694;1239;69138;-69
2023/12/04 06:05:16;;;;;;;6.90;5.40;;;;;;;-1.98;95.99;98083.48;110528;1238;68400;-69
2023/12/04 06:07:46;;;;;;;8.20;5.60;;;;;;;-2.04;96.07;98086.98;110399;1239;58889;-69
2023/12/04 06:10:16;;;;;;;;;;;;;;;-2.07;96.69;98092.81;110543;1239;58851;-69
2023/12/04 06:12:46;;;;;;;9.40;5.70;;;;;;;-2.10;97.34;98094.55;110538;1237;70568;-69
2023/12/04 06:15:16;;;;;;;7.60;5.40;;;;;;;-2.11;97.40;98100.03;110713;1239;69854;-69
2023/12/04 06:17:46;;;;;;;10.80;7.40;;;;;;;-2.12;97.53;98105.51;110631;1237;69261;-69
2023/12/04 06:20:16;;;;;;;10.30;6.60;;;;;;;-2.12;97.74;98112.85;110506;1238;58886;-68
2023/12/04 06:22:47;;;;;;;9.60;6.10;;;;;;;-2.10;98.06;98112.47;110234;1237;58940;-68
2023/12/04 06:25:18;;;;;;;13.10;7.50;;;;;;;-2.06;97.93;98117.56;110458;1239;70457;-69
2023/12/04 06:27:48;;;;;;;14.10;8.70;;;;;;;-2.04;98.00;98122.48;110392;1241;70464;-68
2023/12/04 06:30:18;;;;;;;15.10;9.00;;;;;;;-2.02;98.17;98129.99;110527;1239;69272;-67
2023/12/04 06:32:47;;;;;;;12.80;8.90;;;;;;;-1.98;98.32;98133.55;110518;1239;58855;-67
2023/12/04 06:35:17;;;;;;;11.60;7.50;;;;;;;-1.93;98.73;98135.88;110578;1239;58923;-67
2023/12/04 06:37:54;;;;;;;13.80;8.30;;;;;;;-1.88;99.03;98141.11;110541;1239;69986;-67
2023/12/04 06:40:23;;;;;;;12.00;8.80;;;;;;;-1.84;98.83;98137.47;110616;1241;69282;-67
2023/12/04 06:42:54;;;;;;;11.60;6.90;;;;;;;-1.80;98.49;98135.55;110451;1247;69365;-67
2023/12/04 06:45:24;;;;;;;;;;;;;;;-1.75;97.90;98135.83;110550;1239;58892;-67
2023/12/04 06:47:54;;;;;;;12.60;7.70;;;;;;;-1.72;97.34;98138.35;110638;1239;58854;-67
2023/12/04 06:50:24;;;;;;;11.20;7.30;;;;;;;-1.68;97.19;98138.98;110643;1239;70418;-66
2023/12/04 06:52:54;;;;;;;17.80;11.90;;;;;;;-1.65;95.46;98138.09;110514;1239;69413;-67
2023/12/04 06:55:24;;;;;;;;;;;;;;;-1.62;94.40;98136.69;110586;1239;69322;-68
2023/12/04 06:57:54;;;;;;;12.50;9.10;;;;;;;-1.56;94.27;98144.13;110505;1239;58893;-68
2023/12/04 07:00:23;;;;;;;14.80;9.40;;;;;;;-1.52;93.37;98149.90;110477;1239;58899;-68
2023/12/04 07:02:53;;;;;;;15.20;9.80;;;;;;;-1.46;93.62;98153.41;110466;1239;70579;-68
2023/12/04 07:05:23;;;;;;;19.60;12.10;;;;;;;-1.43;93.71;98157.48;110491;1237;69084;-68
2023/12/04 07:07:52;;;;;;;18.80;11.40;;;;;;;-1.36;93.29;98163.38;110519;1238;68667;-68
2023/12/04 07:10:22;;;;;;;15.30;10.40;;;;;;;-1.32;93.03;98165.70;110516;1239;58878;-68
2023/12/04 07:12:52;;;;;;;15.40;8.90;;;;;;;-1.25;93.36;98164.59;110517;1237;58842;-68
2023/12/04 07:15:22;;;;;;;;;;;;;;;-1.20;92.29;98168.45;110584;1239;70600;-68
2023/12/04 07:17:51;;;;;;;12.90;8.00;;;;;;;-1.19;91.22;98175.80;110652;1238;69690;-69
2023/12/04 07:20:26;;;;;;;12.50;7.90;;;;;;;-1.14;91.37;98166.81;110509;1239;69863;-69
2023/12/04 07:22:57;;;;;;;13.90;8.00;;;;;;;-1.08;89.88;98163.32;110554;1237;58972;-69
2023/12/04 07:25:28;;;;;;;11.80;8.10;;;;;;;-1.01;89.55;98157.59;110552;1239;58776;-68
2023/12/04 07:27:57;;;;;;;9.30;7.40;;;;;;;-0.99;87.14;98159.27;110501;1238;70565;-69
2023/12/04 07:30:27;;;;;;;13.50;9.10;;;;;;;-0.96;86.09;98162.46;110576;1246;69194;-69
2023/12/04 07:32:57;;;;;;;13.30;7.90;;;;;;;-1.02;84.02;98165.63;110475;1237;68560;-69
2023/12/04 07:35:27;;;;;;;11.10;7.90;;;;;;;-0.92;84.76;98167.89;110557;1239;58934;-69
2023/12/04 07:37:57;;;;;;;12.10;8.20;;;;;;;-0.89;83.99;98170.76;110689;1239;58858;-69
2023/12/04 07:40:27;;;;;;;10.60;8.00;;;;;;;-0.81;84.62;98171.64;110510;1239;69836;-68
2023/12/04 07:42:57;;;;;;;11.30;7.30;;;;;;;-0.73;85.85;98169.30;110463;1237;68525;-68
2023/12/04 07:45:27;;;;;;;13.50;8.80;;;;;;;-0.61;85.62;98165.50;110443;1239;68229;-68
2023/12/04 07:47:57;;;;;;;12.90;8.20;;;;;;;-0.51;86.71;98166.38;110478;1239;59670;-67
2023/12/04 07:50:29;;;;;;;12.40;8.40;;;;;;;-0.45;83.14;98166.80;110538;1237;59686;-68
2023/12/04 07:52:59;;;;;;;13.10;8.70;;;;;;;-0.42;78.44;98165.71;110572;1237;71502;-67
2023/12/04 07:55:28;;;;;;;10.70;7.30;;;;;;;-0.26;78.63;98165.27;110576;1238;68891;-67
2023/12/04 07:57:59;;;;;;;10.40;6.40;;;;;;;-0.10;79.76;98167.89;110569;1239;68712;-68
2023/12/04 08:00:28;;;;;;;11.60;7.60;;;;;;;0.05;76.67;98172.44;110609;1239;59794;-68
2023/12/04 08:02:59;;;;;;;8.60;6.70;;;;;;;0.21;77.00;98170.40;110564;1238;59669;-68
2023/12/04 08:05:31;;;;;;;9.50;6.50;;;;;;;0.27;74.80;98176.64;110668;1239;71410;-68
2023/12/04 08:08:00;;;;;;;10.80;6.60;;;;;;;0.37;74.17;98185.00;110675;1238;69156;-68
2023/12/04 08:10:30;;;;;;;9.50;7.10;;;;;;;0.44;74.97;98182.30;110671;1239;69248;-68
2023/12/04 08:13:00;;;;;;;8.60;6.50;;;;;;;0.35;73.85;98184.19;110527;1238;59706;-68
2023/12/04 08:15:30;;;;;;;9.50;6.40;;;;;;;0.41;74.53;98184.77;110483;1239;59740;-68
2023/12/04 08:18:00;;;;;;;8.70;6.10;;;;;;;0.40;71.94;98182.39;110535;1239;71386;-68
2023/12/04 08:20:29;;;;;;;8.90;6.40;;;;;;;0.45;71.34;98183.29;110507;1242;69108;-68
2023/12/04 08:23:09;;;;;;;8.80;6.30;;;;;;;0.50;71.01;98186.98;110502;1239;69505;-69
2023/12/04 08:25:39;;;;;;;8.50;6.30;;;;;;;0.62;72.94;98188.96;110516;1240;59699;-68
2023/12/04 08:28:09;;;;;;;8.30;6.10;;;;;;;0.74;73.94;98184.94;110594;1240;59687;-69
2023/12/04 08:30:39;;;;;;;8.50;5.80;;;;;;;0.91;73.90;98181.30;110597;1239;71212;-69
2023/12/04 08:33:08;;;;;;;8.00;6.30;;;;;;;1.05;67.71;98182.90;110447;1238;69140;-69
2023/12/04 08:35:38;;;;;;;8.60;6.50;;;;;;;1.27;69.14;98185.14;110435;1238;68560;-69
2023/12/04 08:38:08;;;;;;;9.00;6.80;;;;;;;1.64;74.83;98186.83;110614;1241;59678;-69
2023/12/04 08:40:38;;;;;;;10.50;6.20;;;;;;;2.04;77.53;98189.59;110410;1241;59794;-69
2023/12/04 08:43:07;;;;;;;10.30;6.80;;;;;;;2.16;67.70;98188.95;110436;1238;71990;-69
2023/12/04 08:45:36;;;;;;;10.70;6.90;;;;;;;2.43;70.79;98190.59;110412;1240;68462;-69
2023/12/04 08:48:08;;;;;;;8.50;5.90;;;;;;;2.63;70.23;98189.52;110247;1243;69084;-69
2023/12/04 08:50:39;;;;;;;7.70;5.90;;;;;;;3.33;74.57;98186.19;110456;1241;59739;-70
2023/12/04 08:53:10;;;;;;;10.80;7.30;;;;;;;4.24;68.00;98183.86;110391;1239;59630;-70
2023/12/04 08:55:40;;;;;;;10.20;7.10;;;;;;;4.99;61.84;98182.34;110410;1242;71446;-69
2023/12/04 08:58:11;;;;;;;8.50;6.60;;;;;;;5.62;59.76;98177.45;110362;1241;69403;-70
2023/12/04 09:00:42;;;;;;;8.20;6.30;;;;;;;6.52;60.65;98174.35;110244;1242;69186;-70
2023/12/04 09:03:12;;;;;;;8.10;6.50;;;;;;;7.09;52.27;98163.80;110380;1242;59741;-70
2023/12/04 09:05:55;;;;;;;8.60;6.10;;;;;;;7.82;54.31;98163.05;110372;1241;59763;-69
2023/12/04 09:08:27;;;;;;;7.60;6.30;;;;;;;8.09;49.54;98164.13;110318;1241;71482;-69
2023/12/04 09:11:07;;;;;;;8.60;6.80;;;;;;;7.60;47.22;98161.33;110371;1241;69274;-69
2023/12/04 09:13:51;;;;;;;7.10;5.60;;;;;;;7.66;52.56;98162.77;110484;1238;69278;-71
2023/12/04 09:16:21;;;;;;;8.70;6.50;;;;;;;7.95;50.64;98160.80;110396;1241;59702;-69
2023/12/04 09:18:50;;;;;;;;;;;;;;;8.42;50.26;98160.52;110419;1238;59678;-69
2023/12/04 09:21:20;;;;;;;7.40;5.90;;;;;;;8.64;44.33;98155.05;110378;1238;71170;-69
2023/12/04 09:23:49;;;;;;;7.90;6.10;;;;;;;8.80;45.43;98149.33;110360;1238;69291;-68
2023/12/04 09:26:19;;;;;;;7.70;6.20;;;;;;;9.21;49.58;98146.19;110383;1242;69216;-69
2023/12/04 09:28:49;;;;;;;7.00;5.80;;;;;;;8.56;43.83;98144.35;110443;1238;59738;-71
2023/12/04 09:31:20;;;;;;;7.00;6.00;;;;;;;7.72;43.30;98141.14;110379;1240;59706;-69
2023/12/04 09:33:50;;;;;;;;;;;;;;;7.14;46.28;98137.20;110403;1238;71933;-69
2023/12/04 09:36:19;;;;;;;7.40;5.40;;;;;;;6.69;47.93;98130.65;110417;1242;69889;-69
2023/12/04 09:38:49;;;;;;;6.50;5.40;;;;;;;6.03;46.97;98130.98;110472;1246;69612;-70
2023/12/04 09:41:19;;;;;;;10.10;7.10;;;;;;;5.70;49.04;98126.61;110460;1238;59673;-69
2023/12/04 09:43:51;;;;;;;8.40;5.30;;;;;;;5.40;50.86;98127.52;110411;1240;59681;-70
2023/12/04 09:46:20;;;;;;;7.10;6.00;;;;;;;5.04;50.39;98125.48;110401;1240;71709;-68
2023/12/04 09:48:52;;;;;;;9.30;7.30;;;;;;;4.43;50.09;98127.28;110279;1242;69385;-69
2023/12/04 09:51:23;;;;;;;8.70;6.50;;;;;;;4.15;50.13;98126.91;110530;1241;69192;-68
2023/12/04 09:53:55;;;;;;;8.30;6.20;;;;;;;3.83;51.61;98128.36;110426;1240;59712;-69
2023/12/04 09:56:25;;;;;;;8.90;6.80;;;;;;;3.61;53.41;98126.54;110527;1241;59744;-69
2023/12/04 09:58:59;;;;;;;8.70;7.00;;;;;;;3.07;55.10;98126.76;110407;1241;71394;-69
2023/12/04 10:01:32;;;;;;;8.40;6.20;;;;;;;2.95;55.94;98127.64;110257;1242;69597;-69
2023/12/04 10:04:05;;;;;;;9.70;7.20;;;;;;;2.74;56.02;98123.95;110352;1241;69920;-69
2023/12/04 10:06:38;;;;;;;7.30;5.80;;;;;;;2.57;55.95;98128.77;110420;1241;59725;-69
2023/12/04 10:09:13;;;;;;;7.60;5.00;;;;;;;2.46;55.75;98131.48;110373;1240;59627;-69
2023/12/04 10:11:51;;;;;;;8.40;5.50;;;;;;;2.31;56.67;98131.58;110433;1241;71222;-69
2023/12/04 10:14:21;;;;;;;8.50;6.10;;;;;;;2.09;58.13;98127.90;110418;1238;69243;-69
2023/12/04 10:16:52;;;;;;;8.30;5.50;;;;;;;2.03;58.86;98127.89;110525;1238;70236;-70
2023/12/04 10:19:31;;;;;;;7.60;5.50;;;;;;;1.93;57.87;98125.73;110512;1238;59630;-70
2023/12/04 10:22:03;;;;;;;7.10;5.60;;;;;;;1.94;57.70;98123.64;110408;1242;59706;-70
2023/12/04 10:24:38;;;;;;;6.70;5.00;;;;;;;1.88;58.13;98117.45;110517;1238;70701;-70
2023/12/04 10:27:12;;;;;;;9.10;6.00;;;;;;;1.92;59.71;98111.01;110377;1241;69227;-70
2023/12/04 10:29:47;;;;;;;7.80;5.50;;;;;;;1.95;59.10;98104.05;110282;1242;70073;-69
2023/12/04 10:32:22;;;;;;;7.90;5.60;;;;;;;2.04;58.60;98104.64;110270;1242;59801;-70
2023/12/04 10:34:51;;;;;;;8.80;6.00;;;;;;;2.15;59.52;98099.70;110382;1238;59782;-70
2023/12/04 10:37:22;;;;;;;8.80;6.40;;;;;;;2.22;58.65;98096.74;110371;1241;71461;-69
2023/12/04 10:39:53;;;;;;;8.10;5.60;;;;;;;2.72;58.49;98090.27;110361;1242;69080;-70
2023/12/04 10:42:26;;;;;;;8.70;6.40;;;;;;;3.68;53.55;98092.67;110431;1240;69117;-70
2023/12/04 10:44:57;;;;;;;10.00;7.60;;;;;;;4.16;51.82;98093.58;110386;1238;59726;-70
2023/12/04 10:47:32;;;;;;;10.30;7.70;;;;;;;4.31;52.21;98097.00;110484;1238;59747;-70
2023/12/04 10:50:07;;;;;;;11.20;8.80;;;;;;;4.63;51.26;98097.90;110418;1238;71378;-71
2023/12/04 10:52:40;;;;;;;10.90;8.20;;;;;;;4.59;50.30;98099.59;110565;1241;69098;-70
2023/12/04 10:55:12;;;;;;;10.70;8.30;;;;;;;5.31;52.35;98098.66;110584;1238;69719;-70
2023/12/04 10:57:43;;;;;;;12.10;8.00;;;;;;;5.30;48.03;98098.38;110559;1241;59702;-70
2023/12/04 11:00:16;;;;;;;10.80;7.40;;;;;;;5.00;47.96;98095.59;110496;1238;59669;-70
2023/12/04 11:02:48;;;;;;;10.80;7.40;;;;;;;4.83;46.94;98094.70;110435;1241;71410;-70
2023/12/04 11:05:21;;;;;;;10.50;7.40;;;;;;;4.67;47.43;98096.86;110451;1238;69233;-69
2023/12/04 11:07:56;;;;;;;8.20;6.40;;;;;;;4.47;48.98;98102.96;110326;1242;68591;-69
2023/12/04 11:10:56;;;;;;;9.00;6.70;;;;;;;4.25;49.14;98096.20;110424;1238;59691;-70
2023/12/04 11:13:34;;;;;;;9.40;6.60;;;;;;;4.25;50.12;98094.83;110444;1241;59675;-69
2023/12/04 11:16:10;;;;;;;8.50;7.00;;;;;;;4.12;49.15;98098.41;110447;1241;71485;-70
2023/12/04 11:18:43;;;;;;;8.00;6.20;;;;;;;3.98;48.87;98097.52;110320;1238;69575;-69
2023/12/04 11:21:13;;;;;;;7.70;6.20;;;;;;;3.89;49.17;98093.19;110552;1238;68808;-69
2023/12/04 11:23:45;;;;;;;9.90;7.60;;;;;;;3.92;50.38;98094.80;110519;1241;59681;-68
2023/12/04 11:26:16;;;;;;;9.80;7.20;;;;;;;3.79;49.96;98091.79;110339;1238;59737;-70
2023/12/04 11:28:46;;;;;;;6.30;5.30;;;;;;;3.72;50.95;98088.59;110610;1238;70452;-69
2023/12/04 11:31:16;;;;;;;8.10;6.10;;;;;;;3.66;50.32;98091.05;110531;1241;69345;-69
2023/12/04 11:33:45;;;;;;;8.50;6.00;;;;;;;3.83;52.53;98087.36;110485;1238;67474;-69
2023/12/04 11:36:16;;;;;;;7.70;6.20;;;;;;;3.82;51.91;98090.31;110530;1240;59737;-69
2023/12/04 11:38:47;;;;;;;8.60;6.00;;;;;;;3.85;52.08;98088.84;110629;1241;59684;-69
2023/12/04 11:41:21;;;;;;;8.00;5.80;;;;;;;3.77;50.91;98089.80;110485;1242;71710;-69
2023/12/04 11:43:56;;;;;;;8.40;6.40;;;;;;;3.49;50.19;98093.31;110537;1240;69142;-69